createdAt,value
2023-03-26T00:00:53.828Z,963.12
2023-03-26T00:01:53.237Z,963.16
2023-03-26T00:02:53.394Z,963.16
2023-03-26T00:03:53.302Z,963.19
2023-03-26T00:04:53.671Z,963.16
2023-03-26T00:05:53.440Z,963.15
2023-03-26T00:06:53.135Z,963.18
2023-03-26T00:07:53.227Z,963.17
2023-03-26T00:08:53.034Z,963.17
2023-03-26T00:09:53.231Z,963.15
2023-03-26T00:10:53.225Z,963.18
2023-03-26T00:11:52.971Z,963.20
2023-03-26T00:12:53.288Z,963.23
2023-03-26T00:13:52.960Z,963.18
2023-03-26T00:14:53.009Z,963.20
2023-03-26T00:15:53.245Z,963.21
2023-03-26T00:16:53.172Z,963.29
2023-03-26T00:17:52.891Z,963.27
2023-03-26T00:18:53.043Z,963.24
2023-03-26T00:19:52.835Z,963.22
2023-03-26T00:20:52.976Z,963.18
2023-03-26T00:21:52.795Z,963.21
2023-03-26T00:22:53.075Z,963.25
2023-03-26T00:23:52.835Z,963.23
2023-03-26T00:24:52.888Z,963.26
2023-03-26T00:25:52.984Z,963.21
2023-03-26T00:26:52.909Z,963.21
2023-03-26T00:27:52.766Z,963.24
2023-03-26T00:28:52.960Z,963.21
2023-03-26T00:29:52.764Z,963.25
2023-03-26T00:30:52.870Z,963.24
2023-03-26T00:31:52.836Z,963.27
2023-03-26T00:32:53.595Z,963.25
2023-03-26T00:33:52.846Z,963.29
2023-03-26T00:34:52.693Z,963.29
2023-03-26T00:35:53.157Z,963.29
2023-03-26T00:36:52.732Z,963.29
2023-03-26T00:37:52.653Z,963.30
2023-03-26T00:38:52.667Z,963.31
2023-03-26T00:39:52.688Z,963.29
2023-03-26T00:40:52.635Z,963.28
2023-03-26T00:41:52.698Z,963.25
2023-03-26T00:42:52.602Z,963.21
2023-03-26T00:43:52.631Z,963.19
2023-03-26T00:44:52.521Z,963.16
2023-03-26T00:45:53.220Z,963.16
2023-03-26T00:46:52.524Z,963.18
2023-03-26T00:47:52.774Z,963.16
2023-03-26T00:48:52.463Z,963.20
2023-03-26T00:49:52.645Z,963.21
2023-03-26T00:50:52.474Z,963.17
2023-03-26T00:51:52.664Z,963.14
2023-03-26T00:52:52.413Z,963.15
2023-03-26T00:53:52.585Z,963.11
2023-03-26T00:54:52.476Z,963.08
2023-03-26T00:55:52.660Z,963.05
2023-03-26T00:56:52.409Z,963.00
2023-03-26T00:57:52.501Z,963.04
2023-03-26T00:58:52.369Z,963.06
2023-03-26T00:59:52.472Z,963.06
2023-03-26T01:00:52.322Z,963.04
2023-03-26T01:01:52.549Z,963.03
2023-03-26T01:02:52.349Z,963.00
2023-03-26T01:04:06.928Z,962.97
2023-03-26T01:04:52.315Z,962.96
2023-03-26T01:05:52.753Z,962.98
2023-03-26T01:06:52.304Z,962.94
2023-03-26T01:07:52.356Z,962.94
2023-03-26T01:08:52.286Z,962.98
2023-03-26T01:09:52.465Z,962.94
2023-03-26T01:10:52.182Z,962.96
2023-03-26T01:11:52.468Z,962.92
2023-03-26T01:12:52.303Z,962.90
2023-03-26T01:13:52.250Z,962.84
2023-03-26T01:14:52.306Z,962.83
2023-03-26T01:15:52.406Z,962.83
2023-03-26T01:16:52.552Z,962.78
2023-03-26T01:17:52.638Z,962.75
2023-03-26T01:18:52.138Z,962.73
2023-03-26T01:19:52.279Z,962.69
2023-03-26T01:20:52.105Z,962.65
2023-03-26T01:21:52.298Z,962.65
2023-03-26T01:22:52.063Z,962.63
2023-03-26T01:23:52.188Z,962.54
2023-03-26T01:24:52.034Z,962.55
2023-03-26T01:25:52.442Z,962.56
2023-03-26T01:26:52.006Z,962.52
2023-03-26T01:27:52.232Z,962.56
2023-03-26T01:28:52.006Z,962.51
2023-03-26T01:29:52.144Z,962.55
2023-03-26T01:30:51.989Z,962.53
2023-03-26T01:31:52.056Z,962.48
2023-03-26T01:32:52.049Z,962.47
2023-03-26T01:33:52.066Z,962.53
2023-03-26T01:34:51.914Z,962.52
2023-03-26T01:35:52.166Z,962.50
2023-03-26T01:36:51.899Z,962.47
2023-03-26T01:37:51.981Z,962.46
2023-03-26T01:38:51.888Z,962.47
2023-03-26T01:39:51.991Z,962.36
2023-03-26T01:40:52.378Z,962.37
2023-03-26T01:41:52.072Z,962.36
2023-03-26T01:42:51.790Z,962.36
2023-03-26T01:43:52.109Z,962.29
2023-03-26T01:44:51.827Z,962.30
2023-03-26T01:45:52.197Z,962.28
2023-03-26T01:46:51.814Z,962.24
2023-03-26T01:47:52.036Z,962.18
2023-03-26T01:48:51.904Z,962.17
2023-03-26T01:49:52.021Z,962.18
2023-03-26T01:50:52.083Z,962.14
2023-03-26T01:51:51.993Z,962.16
2023-03-26T01:52:51.753Z,962.12
2023-03-26T01:53:51.694Z,962.08
2023-03-26T01:54:51.884Z,962.05
2023-03-26T01:55:51.696Z,962.04
2023-03-26T01:56:51.741Z,962.03
2023-03-26T01:57:51.672Z,962.03
2023-03-26T01:58:51.705Z,962.03
2023-03-26T01:59:51.612Z,962.04
2023-03-26T02:00:51.714Z,962.02
2023-03-26T02:01:51.701Z,962.01
2023-03-26T02:02:51.887Z,961.97
2023-03-26T02:03:51.568Z,961.94
2023-03-26T02:04:51.780Z,961.92
2023-03-26T02:05:51.679Z,961.87
2023-03-26T02:06:51.618Z,961.83
2023-03-26T02:07:51.501Z,961.76
2023-03-26T02:08:51.597Z,961.73
2023-03-26T02:09:51.531Z,961.70
2023-03-26T02:10:51.664Z,961.67
2023-03-26T02:11:51.578Z,961.69
2023-03-26T02:12:51.646Z,961.67
2023-03-26T02:13:51.479Z,961.63
2023-03-26T02:14:51.642Z,961.63
2023-03-26T02:15:51.526Z,961.60
2023-03-26T02:16:51.503Z,961.59
2023-03-26T02:17:51.428Z,961.57
2023-03-26T02:18:51.443Z,961.56
2023-03-26T02:19:51.446Z,961.56
2023-03-26T02:20:51.357Z,961.55
2023-03-26T02:21:51.570Z,961.52
2023-03-26T02:22:51.403Z,961.50
2023-03-26T02:23:51.521Z,961.51
2023-03-26T02:24:51.335Z,961.53
2023-03-26T02:25:51.314Z,961.50
2023-03-26T02:26:51.539Z,961.46
2023-03-26T02:27:51.336Z,961.41
2023-03-26T02:28:51.352Z,961.40
2023-03-26T02:29:51.268Z,961.39
2023-03-26T02:30:51.382Z,961.38
2023-03-26T02:31:51.347Z,961.38
2023-03-26T02:32:51.381Z,961.36
2023-03-26T02:33:51.216Z,961.33
2023-03-26T02:34:51.397Z,961.29
2023-03-26T02:35:51.268Z,961.31
2023-03-26T02:36:51.373Z,961.27
2023-03-26T02:37:51.215Z,961.26
2023-03-26T02:38:51.134Z,961.26
2023-03-26T02:39:51.124Z,961.25
2023-03-26T02:40:51.255Z,961.18
2023-03-26T02:41:51.061Z,961.17
2023-03-26T02:42:51.276Z,961.17
2023-03-26T02:43:51.030Z,961.17
2023-03-26T02:44:51.146Z,961.19
2023-03-26T02:45:51.176Z,961.16
2023-03-26T02:46:51.043Z,961.11
2023-03-26T02:47:51.182Z,961.06
2023-03-26T02:48:50.972Z,961.08
2023-03-26T02:49:51.199Z,961.05
2023-03-26T02:50:51.129Z,961.04
2023-03-26T02:51:50.944Z,960.96
2023-03-26T02:52:51.156Z,960.94
2023-03-26T02:53:50.910Z,960.89
2023-03-26T02:54:50.956Z,960.85
2023-03-26T02:55:50.932Z,960.81
2023-03-26T02:56:50.979Z,960.80
2023-03-26T02:57:50.937Z,960.78
2023-03-26T02:58:50.974Z,960.77
2023-03-26T02:59:50.859Z,960.77
2023-03-26T03:00:50.940Z,960.71
2023-03-26T03:01:50.976Z,960.75
2023-03-26T03:02:51.019Z,960.69
2023-03-26T03:03:50.809Z,960.62
2023-03-26T03:04:50.995Z,960.64
2023-03-26T03:05:50.792Z,960.63
2023-03-26T03:06:51.060Z,960.65
2023-03-26T03:07:50.758Z,960.58
2023-03-26T03:08:50.845Z,960.59
2023-03-26T03:09:50.822Z,960.55
2023-03-26T03:10:50.745Z,960.54
2023-03-26T03:11:50.722Z,960.52
2023-03-26T03:12:50.843Z,960.51
2023-03-26T03:13:50.705Z,960.49
2023-03-26T03:14:50.890Z,960.44
2023-03-26T03:15:50.632Z,960.44
2023-03-26T03:16:50.761Z,960.41
2023-03-26T03:17:50.666Z,960.46
2023-03-26T03:18:50.739Z,960.44
2023-03-26T03:19:50.656Z,960.43
2023-03-26T03:20:50.739Z,960.43
2023-03-26T03:21:50.698Z,960.41
2023-03-26T03:22:50.616Z,960.39
2023-03-26T03:23:50.749Z,960.35
2023-03-26T03:24:50.541Z,960.37
2023-03-26T03:25:50.672Z,960.43
2023-03-26T03:26:50.469Z,960.37
2023-03-26T03:27:50.679Z,960.38
2023-03-26T03:28:50.474Z,960.37
2023-03-26T03:29:50.518Z,960.34
2023-03-26T03:30:50.455Z,960.35
2023-03-26T03:31:50.811Z,960.33
2023-03-26T03:32:50.481Z,960.30
2023-03-26T03:33:50.583Z,960.28
2023-03-26T03:34:50.397Z,960.25
2023-03-26T03:35:50.461Z,960.25
2023-03-26T03:36:50.348Z,960.22
2023-03-26T03:37:50.588Z,960.23
2023-03-26T03:38:50.386Z,960.17
2023-03-26T03:39:50.556Z,960.13
2023-03-26T03:40:50.299Z,960.13
2023-03-26T03:41:50.369Z,960.08
2023-03-26T03:42:50.359Z,960.10
2023-03-26T03:43:50.313Z,960.08
2023-03-26T03:44:50.427Z,960.09
2023-03-26T03:45:50.281Z,960.10
2023-03-26T03:46:50.311Z,960.13
2023-03-26T03:47:50.325Z,960.13
2023-03-26T03:48:50.303Z,960.16
2023-03-26T03:49:50.246Z,960.15
2023-03-26T03:50:50.224Z,960.20
2023-03-26T03:51:50.207Z,960.21
2023-03-26T03:52:50.209Z,960.20
2023-03-26T03:53:50.176Z,960.20
2023-03-26T03:54:50.250Z,960.15
2023-03-26T03:55:50.188Z,960.16
2023-03-26T03:56:50.181Z,960.10
2023-03-26T03:57:50.127Z,960.09
2023-03-26T03:58:50.188Z,960.04
2023-03-26T03:59:50.093Z,960.03
2023-03-26T04:00:50.120Z,959.96
2023-03-26T04:01:50.111Z,959.95
2023-03-26T04:02:50.294Z,959.92
2023-03-26T04:03:50.342Z,959.89
2023-03-26T04:04:50.352Z,959.84
2023-03-26T04:05:50.029Z,959.85
2023-03-26T04:06:50.161Z,959.83
2023-03-26T04:07:49.988Z,959.85
2023-03-26T04:08:50.122Z,959.81
2023-03-26T04:09:49.985Z,959.76
2023-03-26T04:10:50.042Z,959.75
2023-03-26T04:11:49.996Z,959.72
2023-03-26T04:12:50.076Z,959.71
2023-03-26T04:13:49.905Z,959.71
2023-03-26T04:14:50.111Z,959.72
2023-03-26T04:15:49.928Z,959.73
2023-03-26T04:16:49.983Z,959.74
2023-03-26T04:17:49.938Z,959.68
2023-03-26T04:18:49.993Z,959.65
2023-03-26T04:19:49.839Z,959.65
2023-03-26T04:20:49.902Z,959.65
2023-03-26T04:21:49.837Z,959.63
2023-03-26T04:22:49.836Z,959.66
2023-03-26T04:23:49.944Z,959.68
2023-03-26T04:24:49.751Z,959.69
2023-03-26T04:25:49.876Z,959.68
2023-03-26T04:26:49.736Z,959.68
2023-03-26T04:27:49.918Z,959.64
2023-03-26T04:28:49.707Z,959.56
2023-03-26T04:29:49.828Z,959.58
2023-03-26T04:30:49.677Z,959.55
2023-03-26T04:31:49.836Z,959.55
2023-03-26T04:32:49.697Z,959.52
2023-03-26T04:33:49.823Z,959.51
2023-03-26T04:34:49.630Z,959.52
2023-03-26T04:35:49.777Z,959.53
2023-03-26T04:36:49.606Z,959.53
2023-03-26T04:37:49.780Z,959.47
2023-03-26T04:38:49.608Z,959.46
2023-03-26T04:39:49.805Z,959.46
2023-03-26T04:40:49.561Z,959.40
2023-03-26T04:41:49.782Z,959.36
2023-03-26T04:42:49.537Z,959.35
2023-03-26T04:43:49.725Z,959.41
2023-03-26T04:44:49.534Z,959.33
2023-03-26T04:45:49.567Z,959.33
2023-03-26T04:46:49.520Z,959.32
2023-03-26T04:47:49.627Z,959.26
2023-03-26T04:48:49.465Z,959.24
2023-03-26T04:49:49.657Z,959.20
2023-03-26T04:50:49.512Z,959.18
2023-03-26T04:51:49.543Z,959.16
2023-03-26T04:52:49.439Z,959.08
2023-03-26T04:53:49.560Z,959.04
2023-03-26T04:54:49.566Z,958.96
2023-03-26T04:55:49.355Z,959.00
2023-03-26T04:56:49.755Z,958.98
2023-03-26T04:57:49.417Z,959.06
2023-03-26T04:58:49.482Z,959.07
2023-03-26T04:59:49.347Z,959.13
2023-03-26T05:00:49.415Z,959.15
2023-03-26T05:01:49.306Z,959.13
2023-03-26T05:02:49.539Z,959.11
2023-03-26T05:03:49.313Z,959.14
2023-03-26T05:04:49.337Z,959.14
2023-03-26T05:05:49.307Z,959.13
2023-03-26T05:06:49.578Z,959.15
2023-03-26T05:07:49.205Z,959.20
2023-03-26T05:08:49.336Z,959.20
2023-03-26T05:09:49.196Z,959.17
2023-03-26T05:10:49.389Z,959.20
2023-03-26T05:11:49.246Z,959.14
2023-03-26T05:12:49.372Z,959.10
2023-03-26T05:13:49.126Z,959.07
2023-03-26T05:14:49.386Z,959.02
2023-03-26T05:15:49.128Z,958.99
2023-03-26T05:16:49.376Z,958.99
2023-03-26T05:17:49.177Z,958.96
2023-03-26T05:18:49.216Z,958.91
2023-03-26T05:19:49.055Z,958.89
2023-03-26T05:20:49.226Z,958.82
2023-03-26T05:21:49.117Z,958.78
2023-03-26T05:22:49.213Z,958.72
2023-03-26T05:23:48.999Z,958.72
2023-03-26T05:24:49.250Z,958.69
2023-03-26T05:25:49.034Z,958.71
2023-03-26T05:26:48.988Z,958.73
2023-03-26T05:27:49.204Z,958.72
2023-03-26T05:28:49.077Z,958.69
2023-03-26T05:29:48.985Z,958.64
2023-03-26T05:30:48.944Z,958.63
2023-03-26T05:31:48.975Z,958.60
2023-03-26T05:32:49.409Z,958.62
2023-03-26T05:33:49.073Z,958.59
2023-03-26T05:34:48.888Z,958.54
2023-03-26T05:35:48.926Z,958.57
2023-03-26T05:36:48.877Z,958.52
2023-03-26T05:37:49.010Z,958.48
2023-03-26T05:38:48.884Z,958.47
2023-03-26T05:39:48.925Z,958.46
2023-03-26T05:40:48.817Z,958.39
2023-03-26T05:41:48.943Z,958.34
2023-03-26T05:42:48.861Z,958.31
2023-03-26T05:43:49.113Z,958.28
2023-03-26T05:44:48.953Z,958.25
2023-03-26T05:45:48.781Z,958.24
2023-03-26T05:46:48.929Z,958.26
2023-03-26T05:47:48.758Z,958.20
2023-03-26T05:48:48.917Z,958.16
2023-03-26T05:49:48.735Z,958.19
2023-03-26T05:50:48.817Z,958.10
2023-03-26T05:51:48.810Z,958.12
2023-03-26T05:52:48.678Z,958.12
2023-03-26T05:53:48.833Z,958.09
2023-03-26T05:54:48.637Z,958.12
2023-03-26T05:55:48.669Z,958.15
2023-03-26T05:56:48.790Z,958.17
2023-03-26T05:57:48.595Z,958.13
2023-03-26T05:58:50.044Z,958.13
2023-03-26T05:59:48.594Z,958.11
2023-03-26T06:00:48.704Z,958.05
2023-03-26T06:01:48.682Z,958.04
2023-03-26T06:02:48.589Z,958.04
2023-03-26T06:03:48.652Z,958.02
2023-03-26T06:04:48.638Z,958.01
2023-03-26T06:05:48.661Z,958.01
2023-03-26T06:06:48.519Z,957.95
2023-03-26T06:07:48.517Z,957.97
2023-03-26T06:08:48.465Z,957.95
2023-03-26T06:09:48.428Z,957.93
2023-03-26T06:10:48.604Z,957.92
2023-03-26T06:11:48.472Z,957.93
2023-03-26T06:12:48.447Z,957.87
2023-03-26T06:13:48.400Z,957.87
2023-03-26T06:14:48.470Z,957.87
2023-03-26T06:15:48.415Z,957.87
2023-03-26T06:16:48.557Z,957.88
2023-03-26T06:17:48.504Z,957.83
2023-03-26T06:18:48.398Z,957.79
2023-03-26T06:19:48.328Z,957.73
2023-03-26T06:20:48.510Z,957.74
2023-03-26T06:21:48.294Z,957.76
2023-03-26T06:22:48.366Z,957.76
2023-03-26T06:23:48.253Z,957.74
2023-03-26T06:24:48.457Z,957.76
2023-03-26T06:25:48.291Z,957.74
2023-03-26T06:26:48.345Z,957.73
2023-03-26T06:27:48.277Z,957.73
2023-03-26T06:28:48.233Z,957.70
2023-03-26T06:29:48.275Z,957.68
2023-03-26T06:30:48.230Z,957.68
2023-03-26T06:31:48.295Z,957.67
2023-03-26T06:32:48.579Z,957.67
2023-03-26T06:33:48.119Z,957.65
2023-03-26T06:34:48.254Z,957.60
2023-03-26T06:35:48.115Z,957.53
2023-03-26T06:36:48.281Z,957.55
2023-03-26T06:37:48.124Z,957.55
2023-03-26T06:38:48.228Z,957.54
2023-03-26T06:39:48.059Z,957.52
2023-03-26T06:40:48.884Z,957.48
2023-03-26T06:41:48.057Z,957.50
2023-03-26T06:43:08.719Z,957.50
2023-03-26T06:43:48.048Z,957.44
2023-03-26T06:44:48.184Z,957.45
2023-03-26T06:45:48.028Z,957.43
2023-03-26T06:46:48.133Z,957.41
2023-03-26T06:47:48.037Z,957.41
2023-03-26T06:48:48.248Z,957.35
2023-03-26T06:49:47.932Z,957.36
2023-03-26T06:50:48.013Z,957.29
2023-03-26T06:51:47.905Z,957.24
2023-03-26T06:52:48.058Z,957.17
2023-03-26T06:53:47.914Z,957.15
2023-03-26T06:54:48.057Z,957.16
2023-03-26T06:55:47.860Z,957.13
2023-03-26T06:56:48.122Z,957.09
2023-03-26T06:57:47.853Z,957.08
2023-03-26T06:58:48.079Z,957.08
2023-03-26T06:59:47.836Z,957.09
2023-03-26T07:00:48.148Z,957.08
2023-03-26T07:01:47.837Z,957.06
2023-03-26T07:02:47.938Z,957.04
2023-03-26T07:03:47.919Z,957.00
2023-03-26T07:04:47.807Z,957.00
2023-03-26T07:05:47.840Z,956.98
2023-03-26T07:06:47.739Z,956.98
2023-03-26T07:07:47.820Z,956.98
2023-03-26T07:08:47.698Z,956.98
2023-03-26T07:09:47.849Z,956.99
2023-03-26T07:10:47.726Z,957.01
2023-03-26T07:11:47.772Z,956.99
2023-03-26T07:12:47.682Z,956.96
2023-03-26T07:13:47.757Z,956.92
2023-03-26T07:14:47.646Z,956.91
2023-03-26T07:15:47.706Z,956.87
2023-03-26T07:16:47.672Z,956.86
2023-03-26T07:17:47.750Z,956.85
2023-03-26T07:18:47.579Z,956.83
2023-03-26T07:19:47.691Z,956.79
2023-03-26T07:20:47.597Z,956.78
2023-03-26T07:21:47.608Z,956.82
2023-03-26T07:22:47.587Z,956.78
2023-03-26T07:23:47.651Z,956.68
2023-03-26T07:24:47.646Z,956.59
2023-03-26T07:25:47.492Z,956.67
2023-03-26T07:26:47.776Z,956.69
2023-03-26T07:27:47.455Z,956.59
2023-03-26T07:29:04.209Z,956.53
2023-03-26T07:29:47.551Z,956.57
2023-03-26T07:30:47.446Z,956.54
2023-03-26T07:31:47.655Z,956.53
2023-03-26T07:32:47.434Z,956.55
2023-03-26T07:33:47.507Z,956.53
2023-03-26T07:34:47.520Z,956.55
2023-03-26T07:35:47.430Z,956.48
2023-03-26T07:36:47.490Z,956.37
2023-03-26T07:37:47.345Z,956.32
2023-03-26T07:38:47.489Z,956.27
2023-03-26T07:39:47.322Z,956.31
2023-03-26T07:40:47.595Z,956.31
2023-03-26T07:41:47.280Z,956.26
2023-03-26T07:42:47.789Z,956.18
2023-03-26T07:43:47.258Z,956.19
2023-03-26T07:44:47.439Z,956.15
2023-03-26T07:45:47.256Z,956.18
2023-03-26T07:46:47.435Z,956.13
2023-03-26T07:47:47.349Z,956.14
2023-03-26T07:48:47.363Z,956.07
2023-03-26T07:49:47.528Z,956.11
2023-03-26T07:50:47.391Z,956.10
2023-03-26T07:51:47.195Z,956.11
2023-03-26T07:52:47.454Z,956.05
2023-03-26T07:53:47.151Z,956.07
2023-03-26T07:54:47.239Z,955.98
2023-03-26T07:55:47.114Z,956.01
2023-03-26T07:56:56.548Z,955.98
2023-03-26T07:57:47.089Z,955.98
2023-03-26T07:58:47.253Z,955.98
2023-03-26T07:59:47.110Z,955.99
2023-03-26T08:00:47.182Z,955.92
2023-03-26T08:01:47.019Z,955.94
2023-03-26T08:02:47.234Z,955.99
2023-03-26T08:03:47.083Z,955.98
2023-03-26T08:04:47.266Z,956.01
2023-03-26T08:05:47.017Z,955.98
2023-03-26T08:06:47.232Z,955.97
2023-03-26T08:07:46.946Z,956.00
2023-03-26T08:08:47.214Z,955.98
2023-03-26T08:09:46.990Z,955.98
2023-03-26T08:10:47.817Z,956.03
2023-03-26T08:11:47.048Z,956.04
2023-03-26T08:12:47.138Z,956.02
2023-03-26T08:13:46.934Z,955.98
2023-03-26T08:14:47.091Z,955.97
2023-03-26T08:15:47.212Z,955.90
2023-03-26T08:16:47.170Z,955.88
2023-03-26T08:17:46.930Z,955.86
2023-03-26T08:18:47.364Z,955.91
2023-03-26T08:19:46.974Z,956.01
2023-03-26T08:20:47.216Z,956.05
2023-03-26T08:21:47.002Z,956.03
2023-03-26T08:22:47.139Z,956.01
2023-03-26T08:23:50.543Z,956.02
2023-03-26T08:24:47.162Z,955.97
2023-03-26T08:25:46.952Z,956.02
2023-03-26T08:26:46.898Z,956.04
2023-03-26T08:27:46.716Z,955.97
2023-03-26T08:28:46.877Z,955.98
2023-03-26T08:29:46.690Z,955.99
2023-03-26T08:30:47.026Z,955.99
2023-03-26T08:31:46.769Z,956.01
2023-03-26T08:32:46.719Z,955.96
2023-03-26T08:33:46.774Z,955.94
2023-03-26T08:34:46.660Z,955.95
2023-03-26T08:35:46.813Z,955.87
2023-03-26T08:36:46.619Z,955.85
2023-03-26T08:37:46.859Z,955.79
2023-03-26T08:38:46.997Z,955.73
2023-03-26T08:39:46.717Z,955.70
2023-03-26T08:40:47.166Z,955.72
2023-03-26T08:41:46.660Z,955.75
2023-03-26T08:42:46.740Z,955.76
2023-03-26T08:43:46.719Z,955.80
2023-03-26T08:44:46.509Z,955.74
2023-03-26T08:45:46.668Z,955.70
2023-03-26T08:46:46.539Z,955.70
2023-03-26T08:47:46.734Z,955.72
2023-03-26T08:48:46.495Z,955.75
2023-03-26T08:49:46.569Z,955.77
2023-03-26T08:50:46.504Z,955.81
2023-03-26T08:51:46.650Z,955.87
2023-03-26T08:52:46.436Z,955.85
2023-03-26T08:53:46.547Z,955.83
2023-03-26T08:54:46.445Z,955.86
2023-03-26T08:55:46.520Z,955.88
2023-03-26T08:56:46.368Z,955.96
2023-03-26T08:57:46.530Z,955.98
2023-03-26T08:58:46.380Z,955.95
2023-03-26T08:59:46.487Z,955.88
2023-03-26T09:00:46.365Z,955.89
2023-03-26T09:01:46.510Z,955.90
2023-03-26T09:02:46.409Z,955.87
2023-03-26T09:03:46.352Z,955.87
2023-03-26T09:04:46.381Z,955.89
2023-03-26T09:05:46.296Z,955.91
2023-03-26T09:06:46.402Z,955.94
2023-03-26T09:07:46.334Z,955.94
2023-03-26T09:08:53.614Z,955.96
2023-03-26T09:09:46.245Z,956.03
2023-03-26T09:10:46.418Z,956.02
2023-03-26T09:11:46.219Z,956.02
2023-03-26T09:12:46.455Z,956.04
2023-03-26T09:13:46.152Z,956.09
2023-03-26T09:14:47.836Z,956.01
2023-03-26T09:15:46.157Z,956.02
2023-03-26T09:16:46.252Z,955.99
2023-03-26T09:17:46.206Z,955.99
2023-03-26T09:18:46.234Z,955.97
2023-03-26T09:19:46.094Z,955.99
2023-03-26T09:20:46.168Z,955.96
2023-03-26T09:21:46.407Z,955.96
2023-03-26T09:22:46.109Z,955.92
2023-03-26T09:23:46.085Z,955.90
2023-03-26T09:24:46.188Z,955.92
2023-03-26T09:25:46.048Z,955.85
2023-03-26T09:26:46.096Z,955.90
2023-03-26T09:27:46.024Z,955.87
2023-03-26T09:28:46.097Z,955.88
2023-03-26T09:29:45.957Z,955.91
2023-03-26T09:30:46.186Z,955.95
2023-03-26T09:31:46.041Z,955.95
2023-03-26T09:32:46.202Z,955.94
2023-03-26T09:33:46.133Z,955.95
2023-03-26T09:34:46.056Z,955.90
2023-03-26T09:35:45.946Z,955.99
2023-03-26T09:36:45.858Z,956.00
2023-03-26T09:37:56.970Z,956.03
2023-03-26T09:38:46.064Z,955.99
2023-03-26T09:39:45.822Z,955.96
2023-03-26T09:40:45.827Z,955.95
2023-03-26T09:41:45.791Z,955.97
2023-03-26T09:42:45.962Z,956.10
2023-03-26T09:43:45.818Z,955.87
2023-03-26T09:44:45.875Z,955.72
2023-03-26T09:45:45.776Z,955.94
2023-03-26T09:46:46.580Z,955.96
2023-03-26T09:47:45.762Z,955.99
2023-03-26T09:48:45.803Z,955.96
2023-03-26T09:49:45.742Z,955.96
2023-03-26T09:50:45.684Z,955.88
2023-03-26T09:51:45.681Z,955.88
2023-03-26T09:52:45.887Z,955.84
2023-03-26T09:53:45.773Z,955.84
2023-03-26T09:54:45.716Z,955.88
2023-03-26T09:55:45.628Z,955.83
2023-03-26T09:56:45.655Z,955.82
2023-03-26T09:57:45.643Z,955.83
2023-03-26T09:58:45.626Z,955.81
2023-03-26T09:59:45.590Z,955.86
2023-03-26T10:00:45.690Z,955.83
2023-03-26T10:01:45.556Z,955.83
2023-03-26T10:02:47.556Z,955.78
2023-03-26T10:03:45.550Z,955.82
2023-03-26T10:04:45.661Z,955.77
2023-03-26T10:05:45.520Z,955.76
2023-03-26T10:06:45.609Z,955.77
2023-03-26T10:07:45.519Z,955.71
2023-03-26T10:08:45.590Z,955.72
2023-03-26T10:09:45.629Z,955.77
2023-03-26T10:10:45.490Z,955.83
2023-03-26T10:11:45.730Z,955.83
2023-03-26T10:12:45.485Z,955.72
2023-03-26T10:13:45.582Z,955.90
2023-03-26T10:14:45.638Z,955.91
2023-03-26T10:15:45.553Z,955.93
2023-03-26T10:16:45.403Z,955.87
2023-03-26T10:17:45.575Z,955.86
2023-03-26T10:18:45.325Z,955.87
2023-03-26T10:19:45.939Z,955.86
2023-03-26T10:20:45.342Z,955.89
2023-03-26T10:21:45.543Z,955.91
2023-03-26T10:22:45.315Z,955.86
2023-03-26T10:23:45.451Z,955.87
2023-03-26T10:24:45.223Z,955.86
2023-03-26T10:25:45.325Z,955.87
2023-03-26T10:27:09.284Z,955.88
2023-03-26T10:27:45.249Z,955.92
2023-03-26T10:28:45.340Z,955.86
2023-03-26T10:29:45.233Z,955.92
2023-03-26T10:30:45.321Z,955.95
2023-03-26T10:31:45.191Z,955.97
2023-03-26T10:32:45.422Z,956.00
2023-03-26T10:33:45.157Z,956.03
2023-03-26T10:34:45.271Z,956.10
2023-03-26T10:35:45.167Z,956.14
2023-03-26T10:36:45.214Z,956.13
2023-03-26T10:38:45.254Z,956.04
2023-03-26T10:39:45.082Z,955.96
2023-03-26T10:40:45.227Z,955.76
2023-03-26T10:41:45.052Z,955.91
2023-03-26T10:42:45.128Z,955.73
2023-03-26T10:43:49.790Z,955.73
2023-03-26T10:44:45.044Z,955.80
2023-03-26T10:45:45.203Z,955.87
2023-03-26T10:46:44.946Z,955.96
2023-03-26T10:47:45.219Z,955.94
2023-03-26T10:48:44.935Z,955.91
2023-03-26T10:49:45.014Z,955.88
2023-03-26T10:50:44.930Z,955.81
2023-03-26T10:51:45.310Z,955.81
2023-03-26T10:52:44.868Z,955.73
2023-03-26T10:53:45.040Z,955.72
2023-03-26T10:54:44.862Z,955.76
2023-03-26T10:55:44.972Z,955.71
2023-03-26T10:56:44.845Z,955.68
2023-03-26T10:57:45.038Z,955.70
2023-03-26T10:58:48.267Z,955.67
2023-03-26T10:59:44.806Z,955.74
2023-03-26T11:00:44.936Z,955.71
2023-03-26T11:01:44.890Z,955.81
2023-03-26T11:02:44.872Z,955.81
2023-03-26T11:03:44.778Z,955.74
2023-03-26T11:04:45.360Z,955.79
2023-03-26T11:05:45.094Z,955.89
2023-03-26T11:06:44.931Z,955.86
2023-03-26T11:07:44.801Z,955.91
2023-03-26T11:08:44.930Z,955.87
2023-03-26T11:09:44.721Z,955.89
2023-03-26T11:10:46.109Z,956.03
2023-03-26T11:11:45.163Z,955.93
2023-03-26T11:12:44.649Z,955.86
2023-03-26T11:13:44.779Z,955.87
2023-03-26T11:14:44.610Z,955.90
2023-03-26T11:15:44.796Z,955.91
2023-03-26T11:16:44.575Z,955.89
2023-03-26T11:17:44.854Z,955.77
2023-03-26T11:18:44.537Z,955.84
2023-03-26T11:19:45.112Z,955.87
2023-03-26T11:20:44.511Z,956.02
2023-03-26T11:21:44.755Z,955.94
2023-03-26T11:22:44.541Z,955.96
2023-03-26T11:23:44.632Z,955.83
2023-03-26T11:24:44.504Z,955.87
2023-03-26T11:25:44.682Z,955.87
2023-03-26T11:26:44.494Z,955.89
2023-03-26T11:27:44.693Z,955.85
2023-03-26T11:29:02.915Z,955.82
2023-03-26T11:29:44.430Z,955.81
2023-03-26T11:30:44.527Z,955.82
2023-03-26T11:31:44.471Z,955.78
2023-03-26T11:32:44.596Z,955.75
2023-03-26T11:33:45.875Z,955.76
2023-03-26T11:34:44.487Z,955.78
2023-03-26T11:35:44.548Z,955.81
2023-03-26T11:36:44.492Z,955.79
2023-03-26T11:37:44.347Z,955.78
2023-03-26T11:38:44.379Z,955.84
2023-03-26T11:39:44.383Z,955.84
2023-03-26T11:40:44.302Z,955.79
2023-03-26T11:41:44.609Z,955.74
2023-03-26T11:42:44.335Z,955.72
2023-03-26T11:43:44.499Z,955.75
2023-03-26T11:44:44.711Z,955.79
2023-03-26T11:45:44.246Z,955.70
2023-03-26T11:46:44.321Z,955.68
2023-03-26T11:47:44.258Z,955.70
2023-03-26T11:48:44.262Z,955.75
2023-03-26T11:49:44.209Z,955.62
2023-03-26T11:50:44.277Z,955.70
2023-03-26T11:51:44.201Z,955.65
2023-03-26T11:52:45.869Z,955.62
2023-03-26T11:53:44.156Z,955.61
2023-03-26T11:54:44.154Z,955.64
2023-03-26T11:55:44.112Z,955.55
2023-03-26T11:57:05.089Z,955.57
2023-03-26T11:57:44.083Z,955.59
2023-03-26T11:58:44.234Z,955.55
2023-03-26T11:59:55.567Z,955.58
2023-03-26T12:00:44.024Z,955.47
2023-03-26T12:01:44.280Z,955.47
2023-03-26T12:02:43.999Z,955.50
2023-03-26T12:03:44.174Z,955.45
2023-03-26T12:04:44.068Z,955.39
2023-03-26T12:05:44.128Z,955.43
2023-03-26T12:06:43.971Z,955.38
2023-03-26T12:07:44.187Z,955.46
2023-03-26T12:08:44.096Z,955.38
2023-03-26T12:09:43.964Z,955.46
2023-03-26T12:10:44.010Z,955.41
2023-03-26T12:11:43.916Z,955.38
2023-03-26T12:12:44.068Z,955.36
2023-03-26T12:13:43.868Z,955.40
2023-03-26T12:14:44.177Z,955.42
2023-03-26T12:15:43.857Z,955.44
2023-03-26T12:16:43.980Z,955.41
2023-03-26T12:17:43.854Z,955.42
2023-03-26T12:18:44.130Z,955.44
2023-03-26T12:19:43.794Z,955.37
2023-03-26T12:20:44.001Z,955.37
2023-03-26T12:21:43.872Z,955.21
2023-03-26T12:22:44.961Z,955.25
2023-03-26T12:23:44.040Z,955.30
2023-03-26T12:24:43.922Z,955.28
2023-03-26T12:25:44.005Z,955.27
2023-03-26T12:26:43.903Z,955.22
2023-03-26T12:27:43.816Z,955.22
2023-03-26T12:28:44.100Z,955.23
2023-03-26T12:29:43.976Z,955.09